sensor_id;sensor_type;location;lat;lon;timestamp;pressure;altitude;pressure_sealevel;temperature;humidity
73516;BME280;61763;51.416;5.442;2024-01-15T00:00:41;100391.16;;;-0.60;100.00
73516;BME280;61763;51.416;5.442;2024-01-15T00:03:06;100380.50;;;-0.57;100.00
73516;BME280;61763;51.416;5.442;2024-01-15T00:05:32;100384.94;;;-0.57;100.00
73516;BME280;61763;51.416;5.442;2024-01-15T00:07:57;100382.22;;;-0.52;100.00
73516;BME280;61763;51.416;5.442;2024-01-15T00:10:23;100384.88;;;-0.51;100.00
73516;BME280;61763;51.416;5.442;2024-01-15T00:12:49;100375.97;;;-0.45;100.00
73516;BME280;61763;51.416;5.442;2024-01-15T00:15:14;100374.13;;;-0.42;100.00
73516;BME280;61763;51.416;5.442;2024-01-15T00:17:40;100363.47;;;-0.39;100.00
73516;BME280;61763;51.416;5.442;2024-01-15T00:20:06;100355.56;;;-0.40;100.00
73516;BME280;61763;51.416;5.442;2024-01-15T00:22:31;100346.66;;;-0.34;100.00
73516;BME280;61763;51.416;5.442;2024-01-15T00:24:57;100344.91;;;-0.37;100.00
73516;BME280;61763;51.416;5.442;2024-01-15T00:27:23;100347.56;;;-0.37;100.00
73516;BME280;61763;51.416;5.442;2024-01-15T00:29:49;100353.84;;;-0.44;100.00
73516;BME280;61763;51.416;5.442;2024-01-15T00:32:16;100345.00;;;-0.45;100.00
73516;BME280;61763;51.416;5.442;2024-01-15T00:34:41;100345.06;;;-0.49;100.00
73516;BME280;61763;51.416;5.442;2024-01-15T00:37:06;100341.53;;;-0.48;100.00
73516;BME280;61763;51.416;5.442;2024-01-15T00:39:32;100340.63;;;-0.49;100.00
73516;BME280;61763;51.416;5.442;2024-01-15T00:41:57;100336.22;;;-0.47;100.00
73516;BME280;61763;51.416;5.442;2024-01-15T00:44:23;100331.81;;;-0.48;100.00
73516;BME280;61763;51.416;5.442;2024-01-15T00:46:48;100324.72;;;-0.47;100.00
73516;BME280;61763;51.416;5.442;2024-01-15T00:49:14;100317.63;;;-0.45;100.00
73516;BME280;61763;51.416;5.442;2024-01-15T00:51:39;100323.78;;;-0.43;100.00
73516;BME280;61763;51.416;5.442;2024-01-15T00:54:05;100322.88;;;-0.41;100.00
73516;BME280;61763;51.416;5.442;2024-01-15T00:56:31;100320.34;;;-0.48;100.00
73516;BME280;61763;51.416;5.442;2024-01-15T00:58:56;100312.41;;;-0.53;100.00
73516;BME280;61763;51.416;5.442;2024-01-15T01:01:21;100310.56;;;-0.46;100.00
73516;BME280;61763;51.416;5.442;2024-01-15T01:03:47;100315.91;;;-0.48;100.00
73516;BME280;61763;51.416;5.442;2024-01-15T01:06:12;100314.88;;;-0.38;100.00
73516;BME280;61763;51.416;5.442;2024-01-15T01:08:38;100317.50;;;-0.36;100.00
73516;BME280;61763;51.416;5.442;2024-01-15T01:11:04;100316.63;;;-0.37;100.00
73516;BME280;61763;51.416;5.442;2024-01-15T01:13:29;100314.78;;;-0.31;100.00
73516;BME280;61763;51.416;5.442;2024-01-15T01:15:55;100317.34;;;-0.25;100.00
73516;BME280;61763;51.416;5.442;2024-01-15T01:18:20;100307.66;;;-0.26;100.00
73516;BME280;61763;51.416;5.442;2024-01-15T01:20:45;100306.72;;;-0.25;100.00
73516;BME280;61763;51.416;5.442;2024-01-15T01:23:11;100304.94;;;-0.23;100.00
73516;BME280;61763;51.416;5.442;2024-01-15T01:25:36;100298.72;;;-0.19;100.00
73516;BME280;61763;51.416;5.442;2024-01-15T01:28:02;100289.63;;;-0.04;100.00
73516;BME280;61763;51.416;5.442;2024-01-15T01:30:27;100294.91;;;-0.03;100.00
73516;BME280;61763;51.416;5.442;2024-01-15T01:32:52;100290.56;;;-0.08;100.00
73516;BME280;61763;51.416;5.442;2024-01-15T01:35:18;100297.50;;;0.02;100.00
73516;BME280;61763;51.416;5.442;2024-01-15T01:37:43;100295.78;;;-0.02;100.00
73516;BME280;61763;51.416;5.442;2024-01-15T01:40:09;100295.03;;;-0.12;100.00
73516;BME280;61763;51.416;5.442;2024-01-15T01:42:34;100311.81;;;-0.10;100.00
73516;BME280;61763;51.416;5.442;2024-01-15T01:45:00;100296.66;;;-0.03;100.00
73516;BME280;61763;51.416;5.442;2024-01-15T01:47:25;100301.19;;;-0.08;100.00
73516;BME280;61763;51.416;5.442;2024-01-15T01:49:52;100306.47;;;-0.07;100.00
73516;BME280;61763;51.416;5.442;2024-01-15T01:52:18;100304.78;;;-0.12;100.00
73516;BME280;61763;51.416;5.442;2024-01-15T01:54:44;100300.34;;;-0.12;100.00
73516;BME280;61763;51.416;5.442;2024-01-15T01:57:10;100298.66;;;-0.16;100.00
73516;BME280;61763;51.416;5.442;2024-01-15T01:59:36;100295.13;;;-0.18;100.00
73516;BME280;61763;51.416;5.442;2024-01-15T02:02:02;100304.13;;;-0.28;100.00
73516;BME280;61763;51.416;5.442;2024-01-15T02:04:29;100303.34;;;-0.33;100.00
73516;BME280;61763;51.416;5.442;2024-01-15T02:06:56;100293.00;;;-0.54;100.00
73516;BME280;61763;51.416;5.442;2024-01-15T02:09:21;100308.13;;;-0.60;100.00
73516;BME280;61763;51.416;5.442;2024-01-15T02:11:47;100299.28;;;-0.62;100.00
73516;BME280;61763;51.416;5.442;2024-01-15T02:14:13;100293.22;;;-0.69;100.00
73516;BME280;61763;51.416;5.442;2024-01-15T02:16:39;100296.84;;;-0.78;100.00
73516;BME280;61763;51.416;5.442;2024-01-15T02:19:04;100293.28;;;-0.77;100.00
73516;BME280;61763;51.416;5.442;2024-01-15T02:21:31;100292.41;;;-0.76;100.00
73516;BME280;61763;51.416;5.442;2024-01-15T02:23:57;100295.06;;;-0.77;100.00
73516;BME280;61763;51.416;5.442;2024-01-15T02:26:22;100303.97;;;-0.83;100.00
73516;BME280;61763;51.416;5.442;2024-01-15T02:28:48;100298.66;;;-0.81;100.00
73516;BME280;61763;51.416;5.442;2024-01-15T02:31:15;100302.19;;;-0.79;100.00
73516;BME280;61763;51.416;5.442;2024-01-15T02:33:42;100296.09;;;-0.88;100.00
73516;BME280;61763;51.416;5.442;2024-01-15T02:36:08;100299.63;;;-0.90;100.00
73516;BME280;61763;51.416;5.442;2024-01-15T02:38:33;100295.28;;;-0.93;100.00
73516;BME280;61763;51.416;5.442;2024-01-15T02:40:58;100288.88;;;-0.76;100.00
73516;BME280;61763;51.416;5.442;2024-01-15T02:43:24;100292.47;;;-0.82;100.00
73516;BME280;61763;51.416;5.442;2024-01-15T02:45:49;100296.94;;;-0.87;100.00
73516;BME280;61763;51.416;5.442;2024-01-15T02:48:15;100289.97;;;-0.93;100.00
73516;BME280;61763;51.416;5.442;2024-01-15T02:50:40;100279.34;;;-0.90;100.00
73516;BME280;61763;51.416;5.442;2024-01-15T02:53:05;100280.25;;;-0.92;100.00
73516;BME280;61763;51.416;5.442;2024-01-15T02:55:31;100274.88;;;-0.88;100.00
73516;BME280;61763;51.416;5.442;2024-01-15T02:57:56;100288.25;;;-0.97;100.00
73516;BME280;61763;51.416;5.442;2024-01-15T03:00:22;100296.13;;;-0.91;100.00
73516;BME280;61763;51.416;5.442;2024-01-15T03:02:48;100292.53;;;-0.86;100.00
73516;BME280;61763;51.416;5.442;2024-01-15T03:05:15;100288.09;;;-0.84;100.00
73516;BME280;61763;51.416;5.442;2024-01-15T03:07:40;100291.66;;;-0.89;100.00
73516;BME280;61763;51.416;5.442;2024-01-15T03:10:06;100282.75;;;-0.81;100.00
73516;BME280;61763;51.416;5.442;2024-01-15T03:12:32;100290.63;;;-0.74;100.00
73516;BME280;61763;51.416;5.442;2024-01-15T03:14:58;100295.00;;;-0.73;100.00
73516;BME280;61763;51.416;5.442;2024-01-15T03:17:23;100296.78;;;-0.72;100.00
73516;BME280;61763;51.416;5.442;2024-01-15T03:19:49;100293.28;;;-0.74;100.00
73516;BME280;61763;51.416;5.442;2024-01-15T03:22:15;100297.50;;;-0.60;100.00
73516;BME280;61763;51.416;5.442;2024-01-15T03:24:40;100308.91;;;-0.54;100.00
73516;BME280;61763;51.416;5.442;2024-01-15T03:27:06;100303.50;;;-0.47;100.00
73516;BME280;61763;51.416;5.442;2024-01-15T03:29:31;100299.19;;;-0.55;100.00
73516;BME280;61763;51.416;5.442;2024-01-15T03:31:57;100294.75;;;-0.52;100.00
73516;BME280;61763;51.416;5.442;2024-01-15T03:34:22;100293.78;;;-0.45;100.00
73516;BME280;61763;51.416;5.442;2024-01-15T03:36:47;100293.63;;;-0.36;100.00
73516;BME280;61763;51.416;5.442;2024-01-15T03:39:13;100281.34;;;-0.42;100.00
73516;BME280;61763;51.416;5.442;2024-01-15T03:41:38;100283.97;;;-0.40;100.00
73516;BME280;61763;51.416;5.442;2024-01-15T03:44:03;100291.06;;;-0.41;100.00
73516;BME280;61763;51.416;5.442;2024-01-15T03:46:29;100288.44;;;-0.42;100.00
73516;BME280;61763;51.416;5.442;2024-01-15T03:48:54;100290.13;;;-0.37;100.00
73516;BME280;61763;51.416;5.442;2024-01-15T03:51:20;100270.63;;;-0.36;100.00
73516;BME280;61763;51.416;5.442;2024-01-15T03:53:46;100269.78;;;-0.36;100.00
73516;BME280;61763;51.416;5.442;2024-01-15T03:56:12;100267.06;;;-0.33;100.00
73516;BME280;61763;51.416;5.442;2024-01-15T03:58:37;100269.69;;;-0.30;100.00
73516;BME280;61763;51.416;5.442;2024-01-15T04:01:03;100271.59;;;-0.38;100.00
73516;BME280;61763;51.416;5.442;2024-01-15T04:03:28;100267.31;;;-0.48;100.00
73516;BME280;61763;51.416;5.442;2024-01-15T04:05:54;100272.53;;;-0.44;100.00
73516;BME280;61763;51.416;5.442;2024-01-15T04:08:19;100268.19;;;-0.48;100.00
73516;BME280;61763;51.416;5.442;2024-01-15T04:10:45;100255.63;;;-0.35;100.00
73516;BME280;61763;51.416;5.442;2024-01-15T04:13:10;100264.31;;;-0.27;100.00
73516;BME280;61763;51.416;5.442;2024-01-15T04:15:35;100253.72;;;-0.27;100.00
73516;BME280;61763;51.416;5.442;2024-01-15T04:18:02;100251.88;;;-0.22;100.00
73516;BME280;61763;51.416;5.442;2024-01-15T04:20:27;100254.59;;;-0.25;100.00
73516;BME280;61763;51.416;5.442;2024-01-15T04:22:53;100248.31;;;-0.19;100.00
73516;BME280;61763;51.416;5.442;2024-01-15T04:25:18;100267.84;;;-0.25;100.00
73516;BME280;61763;51.416;5.442;2024-01-15T04:27:43;100257.34;;;-0.31;100.00
73516;BME280;61763;51.416;5.442;2024-01-15T04:30:09;100249.41;;;-0.34;100.00
73516;BME280;61763;51.416;5.442;2024-01-15T04:32:35;100248.47;;;-0.30;100.00
73516;BME280;61763;51.416;5.442;2024-01-15T04:35:01;100228.94;;;-0.24;100.00
73516;BME280;61763;51.416;5.442;2024-01-15T04:37:26;100228.91;;;-0.23;100.00
73516;BME280;61763;51.416;5.442;2024-01-15T04:39:52;100220.13;;;-0.26;100.00
73516;BME280;61763;51.416;5.442;2024-01-15T04:42:20;100234.31;;;-0.29;100.00
73516;BME280;61763;51.416;5.442;2024-01-15T04:44:45;100228.16;;;-0.31;100.00
73516;BME280;61763;51.416;5.442;2024-01-15T04:47:11;100243.13;;;-0.28;100.00
73516;BME280;61763;51.416;5.442;2024-01-15T04:49:36;100237.84;;;-0.30;100.00
73516;BME280;61763;51.416;5.442;2024-01-15T04:52:02;100240.56;;;-0.33;100.00
73516;BME280;61763;51.416;5.442;2024-01-15T04:54:27;100237.91;;;-0.33;100.00
73516;BME280;61763;51.416;5.442;2024-01-15T04:56:52;100235.19;;;-0.28;100.00
73516;BME280;61763;51.416;5.442;2024-01-15T04:59:18;100237.81;;;-0.27;100.00
73516;BME280;61763;51.416;5.442;2024-01-15T05:01:43;100242.13;;;-0.20;100.00
73516;BME280;61763;51.416;5.442;2024-01-15T05:04:09;100240.34;;;-0.19;100.00
73516;BME280;61763;51.416;5.442;2024-01-15T05:06:34;100233.28;;;-0.20;100.00
73516;BME280;61763;51.416;5.442;2024-01-15T05:08:59;100232.44;;;-0.21;100.00
73516;BME280;61763;51.416;5.442;2024-01-15T05:11:25;100226.25;;;-0.23;100.00
73516;BME280;61763;51.416;5.442;2024-01-15T05:13:50;100240.41;;;-0.24;100.00
73516;BME280;61763;51.416;5.442;2024-01-15T05:16:15;100229.78;;;-0.22;100.00
73516;BME280;61763;51.416;5.442;2024-01-15T05:18:41;100229.78;;;-0.24;100.00
73516;BME280;61763;51.416;5.442;2024-01-15T05:21:08;100228.94;;;-0.24;100.00
73516;BME280;61763;51.416;5.442;2024-01-15T05:23:34;100221.91;;;-0.27;100.00
73516;BME280;61763;51.416;5.442;2024-01-15T05:25:59;100217.50;;;-0.28;100.00
73516;BME280;61763;51.416;5.442;2024-01-15T05:28:25;100223.72;;;-0.29;100.00
73516;BME280;61763;51.416;5.442;2024-01-15T05:30:50;100218.47;;;-0.32;100.00
73516;BME280;61763;51.416;5.442;2024-01-15T05:33:16;100219.41;;;-0.36;100.00
73516;BME280;61763;51.416;5.442;2024-01-15T05:35:42;100217.59;;;-0.34;100.00
73516;BME280;61763;51.416;5.442;2024-01-15T05:38:08;100212.25;;;-0.29;100.00
73516;BME280;61763;51.416;5.442;2024-01-15T05:40:33;100206.03;;;-0.30;100.00
73516;BME280;61763;51.416;5.442;2024-01-15T05:42:59;100211.34;;;-0.30;100.00
73516;BME280;61763;51.416;5.442;2024-01-15T05:45:26;100206.00;;;-0.28;100.00
73516;BME280;61763;51.416;5.442;2024-01-15T05:47:51;100206.88;;;-0.26;100.00
73516;BME280;61763;51.416;5.442;2024-01-15T05:50:17;100197.94;;;-0.21;100.00
73516;BME280;61763;51.416;5.442;2024-01-15T05:52:43;100202.34;;;-0.20;100.00
73516;BME280;61763;51.416;5.442;2024-01-15T05:55:08;100192.56;;;-0.16;100.00
73516;BME280;61763;51.416;5.442;2024-01-15T05:57:35;100193.47;;;-0.17;100.00
73516;BME280;61763;51.416;5.442;2024-01-15T06:00:00;100190.53;;;0.00;100.00
73516;BME280;61763;51.416;5.442;2024-01-15T06:02:26;100197.69;;;-0.05;100.00
73516;BME280;61763;51.416;5.442;2024-01-15T06:04:51;100191.53;;;-0.07;100.00
73516;BME280;61763;51.416;5.442;2024-01-15T06:07:17;100186.31;;;-0.13;100.00
73516;BME280;61763;51.416;5.442;2024-01-15T06:09:42;100189.91;;;-0.16;100.00
73516;BME280;61763;51.416;5.442;2024-01-15T06:12:08;100190.63;;;-0.06;100.00
73516;BME280;61763;51.416;5.442;2024-01-15T06:14:33;100180.94;;;-0.07;100.00
73516;BME280;61763;51.416;5.442;2024-01-15T06:16:59;100185.34;;;-0.08;100.00
73516;BME280;61763;51.416;5.442;2024-01-15T06:19:24;100186.22;;;-0.07;100.00
73516;BME280;61763;51.416;5.442;2024-01-15T06:21:49;100175.50;;;-0.01;100.00
73516;BME280;61763;51.416;5.442;2024-01-15T06:24:15;100177.28;;;0.00;100.00
73516;BME280;61763;51.416;5.442;2024-01-15T06:26:43;100179.00;;;0.01;100.00
73516;BME280;61763;51.416;5.442;2024-01-15T06:29:08;100192.13;;;0.09;100.00
73516;BME280;61763;51.416;5.442;2024-01-15T06:31:33;100185.28;;;-0.05;100.00
73516;BME280;61763;51.416;5.442;2024-01-15T06:33:59;100181.06;;;-0.16;100.00
73516;BME280;61763;51.416;5.442;2024-01-15T06:36:24;100180.41;;;-0.29;100.00
73516;BME280;61763;51.416;5.442;2024-01-15T06:38:49;100181.41;;;-0.37;100.00
73516;BME280;61763;51.416;5.442;2024-01-15T06:41:15;100179.72;;;-0.41;100.00
73516;BME280;61763;51.416;5.442;2024-01-15T06:43:40;100180.75;;;-0.51;100.00
73516;BME280;61763;51.416;5.442;2024-01-15T06:46:06;100176.44;;;-0.58;100.00
73516;BME280;61763;51.416;5.442;2024-01-15T06:48:31;100179.13;;;-0.61;100.00
73516;BME280;61763;51.416;5.442;2024-01-15T06:50:56;100181.78;;;-0.61;100.00
73516;BME280;61763;51.416;5.442;2024-01-15T06:53:22;100180.03;;;-0.62;100.00
73516;BME280;61763;51.416;5.442;2024-01-15T06:55:48;100179.16;;;-0.63;100.00
73516;BME280;61763;51.416;5.442;2024-01-15T06:58:14;100185.38;;;-0.65;100.00
73516;BME280;61763;51.416;5.442;2024-01-15T07:00:39;100179.13;;;-0.61;100.00
73516;BME280;61763;51.416;5.442;2024-01-15T07:03:05;100175.63;;;-0.62;100.00
73516;BME280;61763;51.416;5.442;2024-01-15T07:05:31;100172.97;;;-0.63;100.00
73516;BME280;61763;51.416;5.442;2024-01-15T07:07:57;100174.69;;;-0.61;100.00
73516;BME280;61763;51.416;5.442;2024-01-15T07:10:22;100168.50;;;-0.60;100.00
73516;BME280;61763;51.416;5.442;2024-01-15T07:12:48;100176.38;;;-0.55;100.00
73516;BME280;61763;51.416;5.442;2024-01-15T07:15:14;100171.94;;;-0.53;100.00
73516;BME280;61763;51.416;5.442;2024-01-15T07:17:41;100179.84;;;-0.48;100.00
73516;BME280;61763;51.416;5.442;2024-01-15T07:20:08;100166.56;;;-0.47;100.00
73516;BME280;61763;51.416;5.442;2024-01-15T07:22:35;100171.81;;;-0.45;100.00
73516;BME280;61763;51.416;5.442;2024-01-15T07:25:01;100178.06;;;-0.49;100.00
73516;BME280;61763;51.416;5.442;2024-01-15T07:27:27;100184.25;;;-0.50;100.00
73516;BME280;61763;51.416;5.442;2024-01-15T07:29:52;100174.59;;;-0.51;100.00
73516;BME280;61763;51.416;5.442;2024-01-15T07:32:17;100180.59;;;-0.42;100.00
73516;BME280;61763;51.416;5.442;2024-01-15T07:34:43;100184.28;;;-0.52;100.00
73516;BME280;61763;51.416;5.442;2024-01-15T07:37:08;100179.94;;;-0.58;100.00
73516;BME280;61763;51.416;5.442;2024-01-15T07:39:34;100181.78;;;-0.61;100.00
73516;BME280;61763;51.416;5.442;2024-01-15T07:42:00;100178.28;;;-0.65;100.00
73516;BME280;61763;51.416;5.442;2024-01-15T07:44:25;100182.63;;;-0.59;100.00
73516;BME280;61763;51.416;5.442;2024-01-15T07:46:51;100189.63;;;-0.54;100.00
73516;BME280;61763;51.416;5.442;2024-01-15T07:49:16;100194.97;;;-0.57;100.00
73516;BME280;61763;51.416;5.442;2024-01-15T07:51:42;100194.88;;;-0.50;100.00
73516;BME280;61763;51.416;5.442;2024-01-15T07:54:09;100202.78;;;-0.49;100.00
73516;BME280;61763;51.416;5.442;2024-01-15T07:56:53;100197.38;;;-0.43;100.00
73516;BME280;61763;51.416;5.442;2024-01-15T07:59:18;100197.38;;;-0.40;100.00
73516;BME280;61763;51.416;5.442;2024-01-15T08:01:44;100202.69;;;-0.40;100.00
73516;BME280;61763;51.416;5.442;2024-01-15T08:04:09;100191.16;;;-0.40;100.00
73516;BME280;61763;51.416;5.442;2024-01-15T08:06:37;100206.13;;;-0.34;100.00
73516;BME280;61763;51.416;5.442;2024-01-15T08:09:03;100212.25;;;-0.32;100.00
73516;BME280;61763;51.416;5.442;2024-01-15T08:11:29;100214.00;;;-0.30;100.00
73516;BME280;61763;51.416;5.442;2024-01-15T08:13:55;100217.50;;;-0.26;100.00
73516;BME280;61763;51.416;5.442;2024-01-15T08:16:20;100220.13;;;-0.26;100.00
73516;BME280;61763;51.416;5.442;2024-01-15T08:18:45;100213.06;;;-0.27;100.00
73516;BME280;61763;51.416;5.442;2024-01-15T08:21:11;100220.09;;;-0.23;100.00
73516;BME280;61763;51.416;5.442;2024-01-15T08:23:36;100200.66;;;-0.25;100.00
73516;BME280;61763;51.416;5.442;2024-01-15T08:26:01;100208.53;;;-0.19;100.00
73516;BME280;61763;51.416;5.442;2024-01-15T08:28:27;100218.25;;;-0.20;100.00
73516;BME280;61763;51.416;5.442;2024-01-15T08:30:52;100208.56;;;-0.22;100.00
73516;BME280;61763;51.416;5.442;2024-01-15T08:33:17;100214.69;;;-0.19;100.00
73516;BME280;61763;51.416;5.442;2024-01-15T08:35:43;100212.91;;;-0.18;100.00
73516;BME280;61763;51.416;5.442;2024-01-15T08:38:08;100211.97;;;-0.14;100.00
73516;BME280;61763;51.416;5.442;2024-01-15T08:40:34;100217.31;;;-0.15;100.00
73516;BME280;61763;51.416;5.442;2024-01-15T08:42:59;100220.88;;;-0.18;100.00
73516;BME280;61763;51.416;5.442;2024-01-15T08:45:24;100234.22;;;-0.23;100.00
73516;BME280;61763;51.416;5.442;2024-01-15T08:47:50;100228.97;;;-0.26;100.00
73516;BME280;61763;51.416;5.442;2024-01-15T08:50:15;100236.94;;;-0.27;100.00
73516;BME280;61763;51.416;5.442;2024-01-15T08:52:41;100236.16;;;-0.36;100.00
73516;BME280;61763;51.416;5.442;2024-01-15T08:55:06;100233.47;;;-0.32;100.00
73516;BME280;61763;51.416;5.442;2024-01-15T08:57:32;100216.72;;;-0.34;100.00
73516;BME280;61763;51.416;5.442;2024-01-15T08:59:58;100216.69;;;-0.33;100.00
73516;BME280;61763;51.416;5.442;2024-01-15T09:02:24;100226.38;;;-0.30;100.00
73516;BME280;61763;51.416;5.442;2024-01-15T09:04:49;100232.44;;;-0.21;100.00
73516;BME280;61763;51.416;5.442;2024-01-15T09:07:15;100227.03;;;-0.14;100.00
73516;BME280;61763;51.416;5.442;2024-01-15T09:09:40;100238.50;;;-0.14;100.00
73516;BME280;61763;51.416;5.442;2024-01-15T09:12:07;100235.78;;;-0.11;100.00
73516;BME280;61763;51.416;5.442;2024-01-15T09:14:33;100243.84;;;-0.17;100.00
73516;BME280;61763;51.416;5.442;2024-01-15T09:16:59;100240.34;;;-0.19;100.00
73516;BME280;61763;51.416;5.442;2024-01-15T09:19:24;100237.75;;;-0.24;100.00
73516;BME280;61763;51.416;5.442;2024-01-15T09:21:50;100243.97;;;-0.25;100.00
73516;BME280;61763;51.416;5.442;2024-01-15T09:24:15;100257.22;;;-0.23;100.00
73516;BME280;61763;51.416;5.442;2024-01-15T09:26:41;100257.16;;;-0.20;100.00
73516;BME280;61763;51.416;5.442;2024-01-15T09:29:06;100250.13;;;-0.23;100.00
73516;BME280;61763;51.416;5.442;2024-01-15T09:31:32;100253.66;;;-0.21;100.00
73516;BME280;61763;51.416;5.442;2024-01-15T09:33:57;100239.63;;;-0.29;100.00
73516;BME280;61763;51.416;5.442;2024-01-15T09:36:25;100238.75;;;-0.29;100.00
73516;BME280;61763;51.416;5.442;2024-01-15T09:38:51;100243.97;;;-0.25;100.00
73516;BME280;61763;51.416;5.442;2024-01-15T09:41:16;100241.38;;;-0.28;100.00
73516;BME280;61763;51.416;5.442;2024-01-15T09:43:42;100243.09;;;-0.27;100.00
73516;BME280;61763;51.416;5.442;2024-01-15T09:46:08;100229.94;;;-0.31;100.00
73516;BME280;61763;51.416;5.442;2024-01-15T09:48:33;100244.09;;;-0.31;100.00
73516;BME280;61763;51.416;5.442;2024-01-15T09:51:01;100227.09;;;-0.19;100.00
73516;BME280;61763;51.416;5.442;2024-01-15T09:53:27;100245.44;;;-0.05;100.00
73516;BME280;61763;51.416;5.442;2024-01-15T09:55:53;100238.03;;;0.14;100.00
73516;BME280;61763;51.416;5.442;2024-01-15T09:58:18;100250.09;;;0.32;100.00
73516;BME280;61763;51.416;5.442;2024-01-15T10:00:44;100249.09;;;0.39;100.00
73516;BME280;61763;51.416;5.442;2024-01-15T10:03:10;100256.47;;;0.22;100.00
73516;BME280;61763;51.416;5.442;2024-01-15T10:05:37;100264.59;;;0.12;100.00
73516;BME280;61763;51.416;5.442;2024-01-15T10:08:04;100247.13;;;-0.01;100.00
73516;BME280;61763;51.416;5.442;2024-01-15T10:10:29;100248.19;;;-0.11;100.00
73516;BME280;61763;51.416;5.442;2024-01-15T10:12:58;100252.84;;;-0.27;100.00
73516;BME280;61763;51.416;5.442;2024-01-15T10:15:24;100245.94;;;-0.38;100.00
73516;BME280;61763;51.416;5.442;2024-01-15T10:17:51;100261.78;;;-0.33;100.00
73516;BME280;61763;51.416;5.442;2024-01-15T10:20:17;100252.00;;;-0.28;100.00
73516;BME280;61763;51.416;5.442;2024-01-15T10:22:42;100250.81;;;-0.10;100.00
73516;BME280;61763;51.416;5.442;2024-01-15T10:25:14;100245.97;;;0.15;100.00
73516;BME280;61763;51.416;5.442;2024-01-15T10:27:43;100242.88;;;0.40;100.00
73516;BME280;61763;51.416;5.442;2024-01-15T10:30:10;100242.94;;;0.37;100.00
73516;BME280;61763;51.416;5.442;2024-01-15T10:32:35;100236.47;;;0.52;100.00
73516;BME280;61763;51.416;5.442;2024-01-15T10:35:00;100236.16;;;0.67;100.00
73516;BME280;61763;51.416;5.442;2024-01-15T10:37:26;100234.44;;;0.66;100.00
73516;BME280;61763;51.416;5.442;2024-01-15T10:39:52;100227.13;;;0.78;100.00
73516;BME280;61763;51.416;5.442;2024-01-15T10:42:17;100227.16;;;0.76;100.00
73516;BME280;61763;51.416;5.442;2024-01-15T10:44:44;100226.34;;;0.73;100.00
73516;BME280;61763;51.416;5.442;2024-01-15T10:47:11;100236.88;;;0.77;100.00
73516;BME280;61763;51.416;5.442;2024-01-15T10:49:37;100244.78;;;0.80;100.00
73516;BME280;61763;51.416;5.442;2024-01-15T10:52:03;100238.59;;;0.80;100.00
73516;BME280;61763;51.416;5.442;2024-01-15T10:54:29;100242.28;;;0.73;100.00
73516;BME280;61763;51.416;5.442;2024-01-15T10:56:56;100240.50;;;0.73;100.00
73516;BME280;61763;51.416;5.442;2024-01-15T10:59:21;100245.75;;;0.76;100.00
73516;BME280;61763;51.416;5.442;2024-01-15T11:01:48;100236.84;;;0.79;100.00
73516;BME280;61763;51.416;5.442;2024-01-15T11:04:14;100230.03;;;0.65;100.00
73516;BME280;61763;51.416;5.442;2024-01-15T11:06:46;100236.03;;;0.74;100.00
73516;BME280;61763;51.416;5.442;2024-01-15T11:09:12;100235.34;;;0.65;100.00
73516;BME280;61763;51.416;5.442;2024-01-15T11:11:43;100232.78;;;0.61;100.00
73516;BME280;61763;51.416;5.442;2024-01-15T11:14:09;100239.94;;;0.56;100.00
73516;BME280;61763;51.416;5.442;2024-01-15T11:16:54;100239.44;;;0.35;100.00
73516;BME280;61763;51.416;5.442;2024-01-15T11:19:22;100240.38;;;0.32;100.00
73516;BME280;61763;51.416;5.442;2024-01-15T11:21:47;100242.94;;;0.37;100.00
73516;BME280;61763;51.416;5.442;2024-01-15T11:24:36;100247.19;;;0.47;100.00
73516;BME280;61763;51.416;5.442;2024-01-15T11:27:02;100240.47;;;0.75;100.00
73516;BME280;61763;51.416;5.442;2024-01-15T11:29:33;100253.06;;;1.09;100.00
73516;BME280;61763;51.416;5.442;2024-01-15T11:32:03;100255.81;;;1.46;100.00
73516;BME280;61763;51.416;5.442;2024-01-15T11:37:17;100252.81;;;1.60;100.00
73516;BME280;61763;51.416;5.442;2024-01-15T11:39:43;100258.28;;;1.54;100.00
73516;BME280;61763;51.416;5.442;2024-01-15T11:42:10;100266.19;;;1.18;100.00
73516;BME280;61763;51.416;5.442;2024-01-15T11:44:37;100271.00;;;0.99;100.00
73516;BME280;61763;51.416;5.442;2024-01-15T11:47:07;100273.31;;;0.69;100.00
73516;BME280;61763;51.416;5.442;2024-01-15T11:50:00;100256.00;;;0.49;100.00
73516;BME280;61763;51.416;5.442;2024-01-15T11:52:36;100256.31;;;0.32;100.00
73516;BME280;61763;51.416;5.442;2024-01-15T11:58:00;100265.22;;;0.28;100.00
73516;BME280;61763;51.416;5.442;2024-01-15T12:00:26;100269.72;;;0.23;100.00
73516;BME280;61763;51.416;5.442;2024-01-15T12:02:51;100272.50;;;0.15;100.00
73516;BME280;61763;51.416;5.442;2024-01-15T12:05:18;100268.91;;;0.20;100.00
73516;BME280;61763;51.416;5.442;2024-01-15T12:07:46;100271.47;;;0.24;100.00
73516;BME280;61763;51.416;5.442;2024-01-15T12:10:14;100275.78;;;0.31;100.00
73516;BME280;61763;51.416;5.442;2024-01-15T12:12:50;100278.31;;;0.38;100.00
73516;BME280;61763;51.416;5.442;2024-01-15T12:15:19;100276.53;;;0.38;100.00
73516;BME280;61763;51.416;5.442;2024-01-15T12:17:45;100275.41;;;0.51;100.00
73516;BME280;61763;51.416;5.442;2024-01-15T12:20:12;100265.63;;;0.55;100.00
73516;BME280;61763;51.416;5.442;2024-01-15T12:22:37;100274.44;;;0.57;100.00
73516;BME280;61763;51.416;5.442;2024-01-15T12:25:03;100260.13;;;0.64;100.00
73516;BME280;61763;51.416;5.442;2024-01-15T12:27:29;100259.06;;;0.75;100.00
73516;BME280;61763;51.416;5.442;2024-01-15T12:29:54;100260.56;;;0.88;100.00
73516;BME280;61763;51.416;5.442;2024-01-15T12:32:20;100259.72;;;0.86;100.00
73516;BME280;61763;51.416;5.442;2024-01-15T12:34:49;100267.66;;;0.87;100.00
73516;BME280;61763;51.416;5.442;2024-01-15T12:37:14;100261.31;;;0.95;100.00
73516;BME280;61763;51.416;5.442;2024-01-15T12:39:43;100273.03;;;0.84;100.00
73516;BME280;61763;51.416;5.442;2024-01-15T12:42:08;100265.00;;;0.87;100.00